createdAt,value
2022-11-10T00:00:14.227Z, 29.13
2022-11-10T00:01:14.212Z, 29.17
2022-11-10T00:02:14.244Z, 29.16
2022-11-10T00:03:14.247Z, 29.11
2022-11-10T00:04:14.325Z, 29.10
2022-11-10T00:05:14.226Z, 29.07
2022-11-10T00:06:14.222Z, 29.15
2022-11-10T00:07:14.279Z, 29.14
2022-11-10T00:08:14.225Z, 29.09
2022-11-10T00:09:14.252Z, 29.12
2022-11-10T00:10:14.240Z, 29.08
2022-11-10T00:11:14.248Z, 29.07
2022-11-10T00:12:14.252Z, 29.08
2022-11-10T00:13:14.255Z, 29.04
2022-11-10T00:14:14.253Z, 29.07
2022-11-10T00:15:14.241Z, 29.07
2022-11-10T00:16:14.252Z, 29.02
2022-11-10T00:17:14.246Z, 29.08
2022-11-10T00:18:14.238Z, 29.05
2022-11-10T00:19:14.251Z, 29.00
2022-11-10T00:20:14.245Z, 29.04
2022-11-10T00:21:14.257Z, 29.08
2022-11-10T00:22:14.244Z, 29.06
2022-11-10T00:23:14.247Z, 29.00
2022-11-10T00:24:14.249Z, 29.04
2022-11-10T00:25:14.272Z, 28.99
2022-11-10T00:26:14.266Z, 29.05
2022-11-10T00:27:14.280Z, 28.98
2022-11-10T00:28:14.276Z, 28.97
2022-11-10T00:29:14.266Z, 28.96
2022-11-10T00:30:14.273Z, 28.99
2022-11-10T00:31:14.261Z, 28.95
2022-11-10T00:32:14.261Z, 29.03
2022-11-10T00:33:14.278Z, 29.01
2022-11-10T00:34:14.280Z, 28.97
2022-11-10T00:35:14.292Z, 28.94
2022-11-10T00:36:14.274Z, 28.92
2022-11-10T00:37:14.272Z, 28.91
2022-11-10T00:38:14.298Z, 28.89
2022-11-10T00:39:14.287Z, 28.93
2022-11-10T00:40:14.266Z, 28.90
2022-11-10T00:41:14.273Z, 28.87
2022-11-10T00:42:14.264Z, 28.82
2022-11-10T00:43:14.276Z, 28.84
2022-11-10T00:44:14.276Z, 28.86
2022-11-10T00:45:14.271Z, 28.86
2022-11-10T00:46:14.302Z, 28.82
2022-11-10T00:47:14.325Z, 28.81
2022-11-10T00:48:14.361Z, 28.81
2022-11-10T00:49:14.384Z, 28.79
2022-11-10T00:50:14.407Z, 28.75
2022-11-10T00:51:14.459Z, 28.78
2022-11-10T00:52:14.558Z, 28.72
2022-11-10T00:53:14.534Z, 28.73
2022-11-10T00:54:14.568Z, 28.74
2022-11-10T00:55:14.602Z, 28.72
2022-11-10T00:56:14.631Z, 28.70
2022-11-10T00:57:14.657Z, 28.69
2022-11-10T00:58:14.674Z, 28.74
2022-11-10T00:59:14.702Z, 28.69
2022-11-10T01:00:14.762Z, 28.65
2022-11-10T01:01:14.810Z, 28.66
2022-11-10T01:02:14.798Z, 28.62
2022-11-10T01:03:14.895Z, 28.63
2022-11-10T01:04:14.900Z, 28.64
2022-11-10T01:05:14.902Z, 28.60
2022-11-10T01:06:14.976Z, 28.65
2022-11-10T01:07:15.011Z, 28.60
2022-11-10T01:08:15.049Z, 28.61
2022-11-10T01:09:15.025Z, 28.59
2022-11-10T01:10:15.123Z, 28.54
2022-11-10T01:11:15.129Z, 28.58
2022-11-10T01:12:15.119Z, 28.54
2022-11-10T01:13:15.234Z, 28.54
2022-11-10T01:14:15.230Z, 28.54
2022-11-10T01:15:15.272Z, 28.52
2022-11-10T01:16:15.285Z, 28.51
2022-11-10T01:17:15.343Z, 28.47
2022-11-10T01:18:15.332Z, 28.49
2022-11-10T01:19:15.365Z, 28.47
2022-11-10T01:20:15.454Z, 28.48
2022-11-10T01:21:15.428Z, 28.48
2022-11-10T01:22:15.439Z, 28.48
2022-11-10T01:23:15.499Z, 28.47
2022-11-10T01:24:16.494Z, 28.46
2022-11-10T01:25:15.530Z, 28.46
2022-11-10T01:26:15.636Z, 28.46
2022-11-10T01:27:15.614Z, 28.45
2022-11-10T01:28:15.694Z, 28.44
2022-11-10T01:29:15.657Z, 28.39
2022-11-10T01:30:16.718Z, 28.39
2022-11-10T01:31:15.763Z, 28.38
2022-11-10T01:32:15.803Z, 28.40
2022-11-10T01:33:15.760Z, 28.38
2022-11-10T01:34:15.866Z, 28.39
2022-11-10T01:35:15.889Z, 28.38
2022-11-10T01:36:15.915Z, 28.35
2022-11-10T01:37:15.924Z, 28.33
2022-11-10T01:38:16.022Z, 28.35
2022-11-10T01:39:16.005Z, 28.36
2022-11-10T01:40:17.109Z, 28.36
2022-11-10T01:41:16.135Z, 28.33
2022-11-10T01:42:16.163Z, 28.33
2022-11-10T01:43:16.126Z, 28.32
2022-11-10T01:44:16.180Z, 28.33
2022-11-10T01:45:16.193Z, 28.31
2022-11-10T01:46:16.236Z, 28.31
2022-11-10T01:47:16.319Z, 28.34
2022-11-10T01:48:16.296Z, 28.29
2022-11-10T01:49:16.302Z, 28.28
2022-11-10T01:50:16.400Z, 28.27
2022-11-10T01:51:16.443Z, 28.26
2022-11-10T01:52:16.475Z, 28.29
2022-11-10T01:53:16.448Z, 28.25
2022-11-10T01:54:16.476Z, 28.26
2022-11-10T01:55:16.509Z, 28.23
2022-11-10T01:56:16.538Z, 28.22
2022-11-10T01:57:16.590Z, 28.22
2022-11-10T01:58:16.669Z, 28.19
2022-11-10T01:59:16.685Z, 28.16
2022-11-10T02:00:16.708Z, 28.19
2022-11-10T02:01:16.782Z, 28.19
2022-11-10T02:02:16.745Z, 28.19
2022-11-10T02:03:16.772Z, 28.18
2022-11-10T02:04:16.779Z, 28.14
2022-11-10T02:05:16.873Z, 28.14
2022-11-10T02:06:16.866Z, 28.15
2022-11-10T02:07:17.945Z, 28.17
2022-11-10T02:08:16.950Z, 28.13
2022-11-10T02:09:16.953Z, 28.11
2022-11-10T02:10:16.954Z, 28.10
2022-11-10T02:11:16.959Z, 28.10
2022-11-10T02:12:16.950Z, 28.07
2022-11-10T02:13:17.021Z, 28.10
2022-11-10T02:14:17.022Z, 28.10
2022-11-10T02:15:16.951Z, 28.07
2022-11-10T02:16:16.966Z, 28.07
2022-11-10T02:17:16.959Z, 28.07
2022-11-10T02:18:16.959Z, 28.09
2022-11-10T02:19:16.963Z, 28.08
2022-11-10T02:20:16.971Z, 28.04
2022-11-10T02:21:16.976Z, 28.05
2022-11-10T02:22:16.972Z, 28.00
2022-11-10T02:23:16.975Z, 28.04
2022-11-10T02:24:16.977Z, 28.02
2022-11-10T02:25:17.009Z, 27.99
2022-11-10T02:26:16.989Z, 28.02
2022-11-10T02:27:17.030Z, 28.01
2022-11-10T02:28:17.007Z, 28.02
2022-11-10T02:29:17.048Z, 28.01
2022-11-10T02:30:17.040Z, 27.99
2022-11-10T02:31:17.048Z, 27.98
2022-11-10T02:32:17.080Z, 27.98
2022-11-10T02:33:17.069Z, 27.96
2022-11-10T02:34:17.097Z, 27.95
2022-11-10T02:35:17.085Z, 27.94
2022-11-10T02:36:17.114Z, 27.93
2022-11-10T02:37:17.115Z, 27.94
2022-11-10T02:38:17.108Z, 27.93
2022-11-10T02:39:17.110Z, 27.93
2022-11-10T02:40:17.113Z, 27.93
2022-11-10T02:41:17.113Z, 27.86
2022-11-10T02:42:17.153Z, 27.90
2022-11-10T02:43:17.129Z, 27.91
2022-11-10T02:44:17.145Z, 27.88
2022-11-10T02:45:17.137Z, 27.89
2022-11-10T02:46:17.139Z, 27.87
2022-11-10T02:47:17.130Z, 27.89
2022-11-10T02:48:17.139Z, 27.88
2022-11-10T02:49:17.145Z, 27.87
2022-11-10T02:50:17.193Z, 27.85
2022-11-10T02:51:17.203Z, 27.84
2022-11-10T02:52:17.183Z, 27.82
2022-11-10T02:53:17.202Z, 27.81
2022-11-10T02:54:17.211Z, 27.80
2022-11-10T02:55:17.234Z, 27.78
2022-11-10T02:56:17.228Z, 27.84
2022-11-10T02:57:17.232Z, 27.77
2022-11-10T02:58:17.254Z, 27.80
2022-11-10T02:59:17.265Z, 27.78
2022-11-10T03:00:17.333Z, 27.80
2022-11-10T03:01:17.297Z, 27.78
2022-11-10T03:02:17.259Z, 27.77
2022-11-10T03:03:17.252Z, 27.80
2022-11-10T03:04:17.269Z, 27.75
2022-11-10T03:05:17.261Z, 27.76
2022-11-10T03:06:17.302Z, 27.76
2022-11-10T03:07:17.321Z, 27.75
2022-11-10T03:08:17.278Z, 27.75
2022-11-10T03:09:17.275Z, 27.73
2022-11-10T03:10:17.308Z, 27.75
2022-11-10T03:11:17.291Z, 27.75
2022-11-10T03:12:17.330Z, 27.75
2022-11-10T03:13:17.309Z, 27.75
2022-11-10T03:14:17.322Z, 27.71
2022-11-10T03:15:17.353Z, 27.72
2022-11-10T03:16:17.361Z, 27.73
2022-11-10T03:17:17.351Z, 27.71
2022-11-10T03:18:17.362Z, 27.70
2022-11-10T03:19:17.397Z, 27.69
2022-11-10T03:20:17.383Z, 27.70
2022-11-10T03:21:17.366Z, 27.68
2022-11-10T03:22:17.380Z, 27.67
2022-11-10T03:23:17.382Z, 27.70
2022-11-10T03:24:17.377Z, 27.68
2022-11-10T03:25:17.407Z, 27.67
2022-11-10T03:26:17.417Z, 27.67
2022-11-10T03:27:17.390Z, 27.68
2022-11-10T03:28:17.395Z, 27.69
2022-11-10T03:29:17.410Z, 27.67
2022-11-10T03:30:17.402Z, 27.61
2022-11-10T03:31:17.404Z, 27.62
2022-11-10T03:32:17.419Z, 27.64
2022-11-10T03:33:17.425Z, 27.62
2022-11-10T03:34:17.472Z, 27.61
2022-11-10T03:35:17.446Z, 27.64
2022-11-10T03:36:17.461Z, 27.60
2022-11-10T03:37:17.457Z, 27.60
2022-11-10T03:38:17.472Z, 27.61
2022-11-10T03:39:17.471Z, 27.60
2022-11-10T03:40:17.496Z, 27.61
2022-11-10T03:41:19.697Z, 27.60
2022-11-10T03:42:17.509Z, 27.54
2022-11-10T03:43:17.494Z, 27.57
2022-11-10T03:44:17.515Z, 27.55
2022-11-10T03:45:17.534Z, 27.55
2022-11-10T03:46:17.507Z, 27.59
2022-11-10T03:47:17.508Z, 27.57
2022-11-10T03:48:17.544Z, 27.56
2022-11-10T03:49:17.541Z, 27.56
2022-11-10T03:50:17.509Z, 27.56
2022-11-10T03:51:17.520Z, 27.53
2022-11-10T03:52:17.552Z, 27.52
2022-11-10T03:53:17.534Z, 27.53
2022-11-10T03:54:17.529Z, 27.50
2022-11-10T03:55:17.537Z, 27.49
2022-11-10T03:56:17.553Z, 27.50
2022-11-10T03:57:17.551Z, 27.51
2022-11-10T03:58:17.563Z, 27.50
2022-11-10T03:59:17.578Z, 27.49
2022-11-10T04:00:17.604Z, 27.49
2022-11-10T04:01:17.630Z, 27.49
2022-11-10T04:02:17.588Z, 27.47
2022-11-10T04:03:17.615Z, 27.46
2022-11-10T04:04:17.598Z, 27.46
2022-11-10T04:05:17.612Z, 27.46
2022-11-10T04:06:17.628Z, 27.43
2022-11-10T04:07:17.627Z, 27.46
2022-11-10T04:08:17.635Z, 27.43
2022-11-10T04:09:17.616Z, 27.43
2022-11-10T04:10:17.619Z, 27.41
2022-11-10T04:11:17.613Z, 27.42
2022-11-10T04:12:22.132Z, 27.41
2022-11-10T04:13:17.631Z, 27.40
2022-11-10T04:14:17.650Z, 27.39
2022-11-10T04:15:17.646Z, 27.41
2022-11-10T04:16:17.647Z, 27.38
2022-11-10T04:17:17.666Z, 27.39
2022-11-10T04:18:17.668Z, 27.41
2022-11-10T04:19:17.649Z, 27.38
2022-11-10T04:20:17.656Z, 27.40
2022-11-10T04:21:17.683Z, 27.38
2022-11-10T04:22:17.669Z, 27.39
2022-11-10T04:23:17.752Z, 27.40
2022-11-10T04:24:17.688Z, 27.38
2022-11-10T04:25:17.687Z, 27.36
2022-11-10T04:26:17.698Z, 27.34
2022-11-10T04:27:17.725Z, 27.36
2022-11-10T04:28:17.722Z, 27.35
2022-11-10T04:29:17.723Z, 27.33
2022-11-10T04:30:17.716Z, 27.31
2022-11-10T04:31:17.719Z, 27.31
2022-11-10T04:32:17.713Z, 27.38
2022-11-10T04:33:17.726Z, 27.43
2022-11-10T04:34:17.715Z, 27.41
2022-11-10T04:35:17.710Z, 27.39
2022-11-10T04:36:17.722Z, 27.38
2022-11-10T04:37:17.712Z, 27.36
2022-11-10T04:38:17.713Z, 27.36
2022-11-10T04:39:17.723Z, 27.36
2022-11-10T04:40:17.726Z, 27.34
2022-11-10T04:41:17.723Z, 27.30
2022-11-10T04:42:17.758Z, 27.23
2022-11-10T04:43:17.758Z, 27.18
2022-11-10T04:44:17.742Z, 27.15
2022-11-10T04:45:17.761Z, 27.09
2022-11-10T04:46:17.753Z, 27.06
2022-11-10T04:47:17.769Z, 27.02
2022-11-10T04:48:17.759Z, 26.99
2022-11-10T04:49:17.755Z, 26.96
2022-11-10T04:50:17.764Z, 26.92
2022-11-10T04:51:17.802Z, 26.90
2022-11-10T04:52:17.795Z, 26.82
2022-11-10T04:53:17.802Z, 26.79
2022-11-10T04:54:17.781Z, 26.73
2022-11-10T04:55:17.790Z, 26.71
2022-11-10T04:56:17.796Z, 26.67
2022-11-10T04:57:17.783Z, 26.61
2022-11-10T04:58:17.797Z, 26.54
2022-11-10T04:59:17.781Z, 26.52
2022-11-10T05:00:17.796Z, 26.49
2022-11-10T05:01:17.955Z, 26.70
2022-11-10T05:02:17.795Z, 27.37
2022-11-10T05:03:17.806Z, 29.13
2022-11-10T05:04:17.789Z, 29.62
2022-11-10T05:05:17.788Z, 30.31
2022-11-10T05:06:17.797Z, 30.61
2022-11-10T05:07:17.781Z, 31.24
2022-11-10T05:08:17.806Z, 32.56
2022-11-10T05:09:17.803Z, 31.93
2022-11-10T05:10:17.793Z, 31.59
2022-11-10T05:11:17.801Z, 31.93
2022-11-10T05:12:22.208Z, 32.45
2022-11-10T05:13:17.833Z, 33.13
2022-11-10T05:14:17.842Z, 33.65
2022-11-10T05:15:17.830Z, 34.97
2022-11-10T05:16:17.871Z, 34.70
2022-11-10T05:17:17.874Z, 34.14
2022-11-10T05:18:17.867Z, 34.28
2022-11-10T05:19:17.889Z, 34.56
2022-11-10T05:20:17.878Z, 35.30
2022-11-10T05:21:17.902Z, 35.87
2022-11-10T05:22:17.892Z, 34.29
2022-11-10T05:23:17.888Z, 33.71
2022-11-10T05:24:17.895Z, 33.62
2022-11-10T05:25:17.896Z, 33.69
2022-11-10T05:26:17.923Z, 33.48
2022-11-10T05:27:17.915Z, 33.16
2022-11-10T05:28:17.936Z, 33.00
2022-11-10T05:29:17.923Z, 32.74
2022-11-10T05:30:17.919Z, 32.62
2022-11-10T05:31:17.932Z, 32.48
2022-11-10T05:32:17.930Z, 32.31
2022-11-10T05:33:17.938Z, 32.22
2022-11-10T05:34:17.951Z, 32.11
2022-11-10T05:35:17.943Z, 32.02
2022-11-10T05:36:17.985Z, 31.93
2022-11-10T05:37:17.969Z, 31.84
2022-11-10T05:38:17.988Z, 31.75
2022-11-10T05:39:17.978Z, 31.69
2022-11-10T05:40:17.993Z, 31.60
2022-11-10T05:41:18.019Z, 31.54
2022-11-10T05:42:18.024Z, 31.45
2022-11-10T05:43:18.017Z, 31.35
2022-11-10T05:44:18.037Z, 31.30
2022-11-10T05:45:18.021Z, 31.26
2022-11-10T05:46:18.026Z, 31.20
2022-11-10T05:47:18.042Z, 31.09
2022-11-10T05:48:18.037Z, 31.03
2022-11-10T05:49:18.052Z, 30.95
2022-11-10T05:50:18.047Z, 30.88
2022-11-10T05:51:18.046Z, 30.82
2022-11-10T05:52:18.042Z, 30.78
2022-11-10T05:53:18.051Z, 30.76
2022-11-10T05:54:18.058Z, 30.68
2022-11-10T05:55:18.093Z, 30.65
2022-11-10T05:56:18.132Z, 30.56
2022-11-10T05:57:18.094Z, 30.47
2022-11-10T05:58:18.089Z, 30.41
2022-11-10T05:59:18.127Z, 30.36
2022-11-10T06:00:18.119Z, 30.30
2022-11-10T06:01:18.157Z, 30.29
2022-11-10T06:02:18.143Z, 30.21
2022-11-10T06:03:18.306Z, 30.12
2022-11-10T06:04:18.137Z, 30.09
2022-11-10T06:05:18.145Z, 30.02
2022-11-10T06:06:18.175Z, 30.01
2022-11-10T06:07:18.156Z, 29.92
2022-11-10T06:08:18.155Z, 29.88
2022-11-10T06:09:18.179Z, 29.90
2022-11-10T06:10:18.164Z, 29.81
2022-11-10T06:11:18.160Z, 29.67
2022-11-10T06:12:18.167Z, 29.58
2022-11-10T06:13:18.170Z, 29.50
2022-11-10T06:14:18.173Z, 29.47
2022-11-10T06:15:18.209Z, 29.40
2022-11-10T06:16:18.252Z, 29.32
2022-11-10T06:17:18.237Z, 29.33
2022-11-10T06:18:18.224Z, 29.30
2022-11-10T06:19:18.221Z, 29.19
2022-11-10T06:20:18.254Z, 29.16
2022-11-10T06:21:18.252Z, 29.08
2022-11-10T06:22:18.243Z, 29.05
2022-11-10T06:23:18.244Z, 29.01
2022-11-10T06:24:18.253Z, 28.96
2022-11-10T06:25:18.256Z, 28.93
2022-11-10T06:26:18.284Z, 28.92
2022-11-10T06:27:18.285Z, 28.91
2022-11-10T06:28:18.282Z, 28.84
2022-11-10T06:29:21.633Z, 28.77
2022-11-10T06:30:18.272Z, 28.68
2022-11-10T06:31:18.286Z, 28.66
2022-11-10T06:32:18.271Z, 28.60
2022-11-10T06:33:18.394Z, 28.58
2022-11-10T06:34:18.318Z, 28.62
2022-11-10T06:35:18.299Z, 28.63
2022-11-10T06:36:18.341Z, 28.63
2022-11-10T06:37:18.317Z, 28.58
2022-11-10T06:38:18.326Z, 28.57
2022-11-10T06:39:18.365Z, 28.57
2022-11-10T06:40:18.361Z, 28.52
2022-11-10T06:41:24.120Z, 28.50
2022-11-10T06:42:18.346Z, 28.46
2022-11-10T06:43:18.343Z, 28.44
2022-11-10T06:44:18.356Z, 28.42
2022-11-10T06:45:18.360Z, 28.40
2022-11-10T06:46:18.369Z, 28.38
2022-11-10T06:47:18.360Z, 28.26
2022-11-10T06:48:18.369Z, 28.18
2022-11-10T06:49:18.376Z, 28.18
2022-11-10T06:50:18.384Z, 28.21
2022-11-10T06:51:18.410Z, 28.21
2022-11-10T06:52:18.413Z, 28.17
2022-11-10T06:53:20.697Z, 28.14
2022-11-10T06:54:18.396Z, 28.14
2022-11-10T06:55:18.398Z, 28.13
2022-11-10T06:56:18.425Z, 28.08
2022-11-10T06:57:18.406Z, 28.06
2022-11-10T06:58:18.435Z, 28.01
2022-11-10T06:59:18.424Z, 28.03
2022-11-10T07:00:18.423Z, 27.98
2022-11-10T07:01:22.237Z, 28.00
2022-11-10T07:02:18.545Z, 27.92
2022-11-10T07:03:18.462Z, 27.92
2022-11-10T07:04:20.060Z, 27.93
2022-11-10T07:05:18.449Z, 27.96
2022-11-10T07:06:18.476Z, 27.87
2022-11-10T07:07:18.473Z, 27.84
2022-11-10T07:08:18.459Z, 27.84
2022-11-10T07:09:18.476Z, 27.82
2022-11-10T07:10:18.462Z, 27.81
2022-11-10T07:11:18.488Z, 27.82
2022-11-10T07:12:18.483Z, 27.74
2022-11-10T07:13:18.491Z, 27.76
2022-11-10T07:14:18.480Z, 27.73
2022-11-10T07:15:18.467Z, 27.65
2022-11-10T07:16:24.160Z, 27.71
2022-11-10T07:17:18.473Z, 27.64
2022-11-10T07:18:18.509Z, 27.65
2022-11-10T07:19:18.481Z, 27.66
2022-11-10T07:20:18.478Z, 27.62
2022-11-10T07:21:18.509Z, 27.59
2022-11-10T07:22:18.488Z, 27.57
2022-11-10T07:23:18.508Z, 27.55
2022-11-10T07:24:18.500Z, 27.54
2022-11-10T07:25:18.499Z, 27.52
2022-11-10T07:26:18.701Z, 27.50
2022-11-10T07:27:18.511Z, 27.47
2022-11-10T07:28:18.529Z, 27.46
2022-11-10T07:29:18.509Z, 27.47
2022-11-10T07:30:18.513Z, 27.42
2022-11-10T07:31:18.504Z, 27.37
2022-11-10T07:32:18.507Z, 27.40
2022-11-10T07:33:18.595Z, 27.36
2022-11-10T07:34:18.519Z, 27.37
2022-11-10T07:35:18.533Z, 27.34
2022-11-10T07:36:18.528Z, 27.34
2022-11-10T07:37:18.515Z, 27.36
2022-11-10T07:38:18.513Z, 27.34
2022-11-10T07:39:18.506Z, 27.33
2022-11-10T07:40:18.512Z, 27.33
2022-11-10T07:41:18.526Z, 27.27
2022-11-10T07:42:18.519Z, 27.28
2022-11-10T07:43:18.631Z, 27.24
2022-11-10T07:44:18.529Z, 27.26
2022-11-10T07:45:18.534Z, 27.24
2022-11-10T07:46:18.537Z, 27.24
2022-11-10T07:47:18.542Z, 27.24
2022-11-10T07:48:18.527Z, 27.20
2022-11-10T07:49:18.523Z, 27.19
2022-11-10T07:50:18.550Z, 27.16
2022-11-10T07:51:18.544Z, 27.18
2022-11-10T07:52:18.537Z, 27.16
2022-11-10T07:53:18.532Z, 27.15
2022-11-10T07:54:18.528Z, 27.14
2022-11-10T07:55:18.535Z, 27.12
2022-11-10T07:56:18.555Z, 27.09
2022-11-10T07:57:18.539Z, 27.10
2022-11-10T07:58:18.533Z, 27.13
2022-11-10T07:59:18.534Z, 27.10
2022-11-10T08:00:18.530Z, 27.07
2022-11-10T08:01:18.575Z, 27.06
2022-11-10T08:02:18.552Z, 27.04
2022-11-10T08:03:18.806Z, 27.07
2022-11-10T08:04:18.705Z, 27.04
2022-11-10T08:05:18.753Z, 27.05
2022-11-10T08:06:18.832Z, 27.02
2022-11-10T08:07:18.977Z, 27.01
2022-11-10T08:08:18.848Z, 26.99
2022-11-10T08:09:18.901Z, 26.99
2022-11-10T08:10:18.861Z, 26.98
2022-11-10T08:11:18.876Z, 26.99
2022-11-10T08:12:18.984Z, 26.94
2022-11-10T08:13:19.124Z, 26.96
2022-11-10T08:14:19.023Z, 26.94
2022-11-10T08:15:19.085Z, 26.94
2022-11-10T08:16:19.109Z, 26.91
2022-11-10T08:17:19.070Z, 26.91
2022-11-10T08:18:19.115Z, 26.92
2022-11-10T08:19:19.159Z, 26.87
2022-11-10T08:20:19.231Z, 26.87
2022-11-10T08:21:19.312Z, 26.86
2022-11-10T08:22:19.330Z, 26.88
2022-11-10T08:23:19.489Z, 26.85
2022-11-10T08:24:19.350Z, 26.85
2022-11-10T08:25:19.423Z, 26.85
2022-11-10T08:26:19.408Z, 26.84
2022-11-10T08:27:19.414Z, 26.84
2022-11-10T08:28:19.438Z, 26.88
2022-11-10T08:29:19.546Z, 26.83
2022-11-10T08:30:19.601Z, 26.80
2022-11-10T08:31:19.629Z, 26.83
2022-11-10T08:32:19.602Z, 26.78
2022-11-10T08:33:20.044Z, 26.77
2022-11-10T08:34:19.690Z, 26.81
2022-11-10T08:35:19.715Z, 26.75
2022-11-10T08:36:19.753Z, 26.74
2022-11-10T08:37:19.781Z, 26.76
2022-11-10T08:38:19.808Z, 26.74
2022-11-10T08:39:37.745Z, 26.76
2022-11-10T08:40:19.874Z, 26.76
2022-11-10T08:41:19.905Z, 26.73
2022-11-10T08:42:19.987Z, 26.76
2022-11-10T08:43:20.369Z, 26.71
2022-11-10T08:44:21.069Z, 26.75
2022-11-10T08:45:20.077Z, 26.70
2022-11-10T08:46:20.072Z, 26.70
2022-11-10T08:47:20.090Z, 26.70
2022-11-10T08:48:20.128Z, 26.70
2022-11-10T08:49:20.167Z, 26.69
2022-11-10T08:50:20.211Z, 26.66
2022-11-10T08:51:20.214Z, 26.66
2022-11-10T08:52:20.284Z, 26.67
2022-11-10T08:53:20.764Z, 26.68
2022-11-10T08:54:20.403Z, 26.64
2022-11-10T08:55:20.427Z, 26.64
2022-11-10T08:56:20.409Z, 26.67
2022-11-10T08:57:20.434Z, 26.64
2022-11-10T08:58:20.462Z, 26.64
2022-11-10T08:59:20.512Z, 26.67
2022-11-10T09:00:20.524Z, 26.64
2022-11-10T09:01:20.545Z, 26.60
2022-11-10T09:02:20.604Z, 26.59
2022-11-10T09:03:21.142Z, 26.60
2022-11-10T09:04:20.818Z, 26.62
2022-11-10T09:05:20.705Z, 26.59
2022-11-10T09:06:20.730Z, 26.60
2022-11-10T09:07:20.778Z, 26.59
2022-11-10T09:08:20.798Z, 26.58
2022-11-10T09:09:20.859Z, 26.57
2022-11-10T09:10:20.880Z, 26.58
2022-11-10T09:11:20.919Z, 26.55
2022-11-10T09:12:20.978Z, 26.58
2022-11-10T09:13:26.054Z, 26.53
2022-11-10T09:14:21.048Z, 26.55
2022-11-10T09:15:21.143Z, 26.52
2022-11-10T09:16:21.118Z, 26.53
2022-11-10T09:17:21.186Z, 26.51
2022-11-10T09:18:21.226Z, 26.53
2022-11-10T09:19:21.229Z, 26.51
2022-11-10T09:20:21.254Z, 26.51
2022-11-10T09:21:21.277Z, 26.49
2022-11-10T09:22:21.306Z, 26.48
2022-11-10T09:23:21.889Z, 26.49
2022-11-10T09:24:21.394Z, 26.50
2022-11-10T09:25:21.400Z, 26.47
2022-11-10T09:26:21.454Z, 26.45
2022-11-10T09:27:21.471Z, 26.45
2022-11-10T09:28:21.577Z, 26.47
2022-11-10T09:29:21.550Z, 26.47
2022-11-10T09:30:21.609Z, 26.46
2022-11-10T09:31:21.603Z, 26.45
2022-11-10T09:32:21.623Z, 26.43
2022-11-10T09:33:22.058Z, 26.45
2022-11-10T09:34:21.759Z, 26.45
2022-11-10T09:35:21.804Z, 26.44
2022-11-10T09:36:21.810Z, 26.42
2022-11-10T09:37:21.812Z, 26.44
2022-11-10T09:38:22.196Z, 26.43
2022-11-10T09:39:21.931Z, 26.40
2022-11-10T09:40:21.891Z, 26.39
2022-11-10T09:41:21.937Z, 26.40
2022-11-10T09:42:21.980Z, 26.37
2022-11-10T09:43:22.469Z, 26.39
2022-11-10T09:44:22.043Z, 26.39
2022-11-10T09:45:22.104Z, 26.40
2022-11-10T09:46:22.097Z, 26.38
2022-11-10T09:47:50.609Z, 26.38
2022-11-10T09:48:22.523Z, 26.36
2022-11-10T09:49:22.244Z, 26.38
2022-11-10T09:50:22.222Z, 26.37
2022-11-10T09:51:22.316Z, 26.36
2022-11-10T09:52:22.337Z, 26.34
2022-11-10T09:53:22.351Z, 26.35
2022-11-10T09:54:22.391Z, 26.35
2022-11-10T09:55:22.422Z, 26.32
2022-11-10T09:56:22.635Z, 26.32
2022-11-10T09:57:22.539Z, 26.34
2022-11-10T09:58:22.852Z, 26.32
2022-11-10T09:59:22.546Z, 26.34
2022-11-10T10:00:22.566Z, 26.33
2022-11-10T10:01:22.727Z, 26.31
2022-11-10T10:02:22.708Z, 26.30
2022-11-10T10:03:22.703Z, 26.28
2022-11-10T10:04:22.722Z, 26.30
2022-11-10T10:05:22.762Z, 26.29
2022-11-10T10:06:22.820Z, 26.28
2022-11-10T10:07:22.889Z, 26.28
2022-11-10T10:08:23.036Z, 26.27
2022-11-10T10:09:22.884Z, 26.27
2022-11-10T10:10:22.948Z, 26.24
2022-11-10T10:11:22.971Z, 26.27
2022-11-10T10:12:22.971Z, 26.27
2022-11-10T10:13:23.023Z, 26.27
2022-11-10T10:14:23.052Z, 26.27
2022-11-10T10:15:25.530Z, 26.25
2022-11-10T10:16:23.102Z, 26.24
2022-11-10T10:17:26.890Z, 26.26
2022-11-10T10:18:23.559Z, 26.24
2022-11-10T10:19:23.287Z, 26.24
2022-11-10T10:20:23.251Z, 26.22
2022-11-10T10:21:23.281Z, 26.21
2022-11-10T10:22:23.330Z, 26.23
2022-11-10T10:23:40.425Z, 26.23
2022-11-10T10:24:23.437Z, 26.21
2022-11-10T10:25:23.422Z, 26.22
2022-11-10T10:26:23.455Z, 26.20
2022-11-10T10:27:23.503Z, 26.21
2022-11-10T10:28:24.109Z, 26.18
2022-11-10T10:29:23.581Z, 26.20
2022-11-10T10:30:23.704Z, 26.19
2022-11-10T10:31:23.689Z, 26.17
2022-11-10T10:32:23.718Z, 26.16
2022-11-10T10:33:23.755Z, 26.16
2022-11-10T10:34:23.749Z, 26.16
2022-11-10T10:35:23.844Z, 26.17
2022-11-10T10:36:23.869Z, 26.19
2022-11-10T10:37:23.864Z, 26.16
2022-11-10T10:38:24.187Z, 26.15
2022-11-10T10:39:23.915Z, 26.14
2022-11-10T10:40:24.028Z, 26.15
2022-11-10T10:41:24.179Z, 26.14
2022-11-10T10:42:24.005Z, 26.10
2022-11-10T10:43:24.037Z, 26.11
2022-11-10T10:44:24.072Z, 26.10
2022-11-10T10:45:24.221Z, 26.13
2022-11-10T10:46:24.134Z, 26.08
2022-11-10T10:47:24.153Z, 26.08
2022-11-10T10:48:24.544Z, 26.09
2022-11-10T10:49:29.050Z, 26.10
2022-11-10T10:50:24.269Z, 26.08
2022-11-10T10:51:24.346Z, 26.07
2022-11-10T10:52:24.349Z, 26.07
2022-11-10T10:53:24.434Z, 26.06
2022-11-10T10:54:24.419Z, 26.06
2022-11-10T10:55:24.432Z, 26.03
2022-11-10T10:56:24.460Z, 26.04
2022-11-10T10:57:24.521Z, 26.04
2022-11-10T10:58:25.097Z, 26.06
2022-11-10T10:59:24.593Z, 26.03
2022-11-10T11:00:24.619Z, 26.05
2022-11-10T11:01:24.727Z, 26.00
2022-11-10T11:02:24.681Z, 25.99
2022-11-10T11:03:24.705Z, 26.02
2022-11-10T11:04:24.792Z, 26.02
2022-11-10T11:05:24.748Z, 25.99
2022-11-10T11:06:24.854Z, 25.98
2022-11-10T11:07:24.907Z, 25.99
2022-11-10T11:08:25.212Z, 25.98
2022-11-10T11:09:24.899Z, 25.99
2022-11-10T11:10:24.917Z, 26.00
2022-11-10T11:11:24.930Z, 25.96
2022-11-10T11:12:25.104Z, 25.99
2022-11-10T11:13:25.101Z, 25.96
2022-11-10T11:14:25.101Z, 25.96
2022-11-10T11:15:25.113Z, 25.96
2022-11-10T11:16:25.132Z, 25.95
2022-11-10T11:17:25.273Z, 25.95
2022-11-10T11:18:25.545Z, 25.95
2022-11-10T11:19:25.230Z, 25.94
2022-11-10T11:20:25.291Z, 25.94
2022-11-10T11:21:25.280Z, 25.93
2022-11-10T11:22:25.354Z, 25.93
2022-11-10T11:23:25.353Z, 25.95
2022-11-10T11:24:25.421Z, 25.91
2022-11-10T11:25:25.423Z, 25.91
2022-11-10T11:26:25.444Z, 25.91
2022-11-10T11:27:25.554Z, 25.93
2022-11-10T11:28:25.742Z, 25.91
2022-11-10T11:29:25.546Z, 25.92
2022-11-10T11:30:25.814Z, 25.89
2022-11-10T11:31:25.797Z, 25.89
2022-11-10T11:32:25.798Z, 25.88
2022-11-10T11:33:25.801Z, 25.87
2022-11-10T11:34:25.897Z, 25.78
2022-11-10T11:35:25.802Z, 25.73
2022-11-10T11:36:25.800Z, 25.75
2022-11-10T11:37:25.825Z, 25.74
2022-11-10T11:38:26.135Z, 25.74
2022-11-10T11:39:25.904Z, 25.71
2022-11-10T11:40:25.966Z, 25.71
2022-11-10T11:41:25.983Z, 25.68
2022-11-10T11:42:26.073Z, 25.68
2022-11-10T11:43:26.056Z, 25.69
2022-11-10T11:44:26.074Z, 25.66
2022-11-10T11:45:26.098Z, 25.64
2022-11-10T11:46:26.139Z, 25.66
2022-11-10T11:47:26.163Z, 25.65
2022-11-10T11:48:26.241Z, 25.65
2022-11-10T11:49:26.235Z, 25.63
2022-11-10T11:50:26.254Z, 25.62
2022-11-10T11:51:26.279Z, 25.61
2022-11-10T11:52:26.320Z, 25.58
2022-11-10T11:53:26.338Z, 25.59
2022-11-10T11:54:26.443Z, 25.59
2022-11-10T11:55:26.425Z, 25.55
2022-11-10T11:56:26.458Z, 25.57
2022-11-10T11:57:26.546Z, 25.53
2022-11-10T11:58:26.555Z, 25.55
2022-11-10T11:59:26.575Z, 25.54
2022-11-10T12:00:26.597Z, 25.53
2022-11-10T12:01:26.629Z, 25.51
2022-11-10T12:02:26.794Z, 25.52
2022-11-10T12:03:26.700Z, 25.53
2022-11-10T12:04:26.759Z, 25.54
2022-11-10T12:05:26.785Z, 25.52
2022-11-10T12:06:26.857Z, 25.52
2022-11-10T12:07:26.911Z, 25.49
2022-11-10T12:08:27.404Z, 25.48
2022-11-10T12:09:26.915Z, 25.50
2022-11-10T12:10:26.932Z, 25.48
2022-11-10T12:11:30.327Z, 25.50
2022-11-10T12:12:27.008Z, 25.48
2022-11-10T12:13:27.065Z, 25.46
2022-11-10T12:14:27.078Z, 25.45
2022-11-10T12:15:27.197Z, 25.47
2022-11-10T12:16:27.165Z, 25.46
2022-11-10T12:17:27.175Z, 25.44
2022-11-10T12:18:27.225Z, 25.46
2022-11-10T12:19:27.220Z, 25.44
2022-11-10T12:20:27.262Z, 25.43
2022-11-10T12:21:27.311Z, 25.43
2022-11-10T12:22:27.345Z, 25.42
2022-11-10T12:23:27.423Z, 25.43
2022-11-10T12:24:27.473Z, 25.43
2022-11-10T12:25:27.437Z, 25.41
2022-11-10T12:26:27.454Z, 25.42
2022-11-10T12:27:27.518Z, 25.41
2022-11-10T12:28:27.545Z, 25.41